sensor_id;sensor_type;location;lat;lon;timestamp;temperature;humidity
3402;DHT22;1714;49.756;8.610;2023-02-12T04:35:38;5.60;89.60
3402;DHT22;1714;49.756;8.610;2023-02-12T04:46:14;5.60;91.80
3402;DHT22;1714;49.756;8.610;2023-02-12T04:56:50;5.40;92.30
3402;DHT22;1714;49.756;8.610;2023-02-12T05:07:26;5.50;92.20
3402;DHT22;1714;49.756;8.610;2023-02-12T05:18:02;5.30;92.40
3402;DHT22;1714;49.756;8.610;2023-02-12T05:28:38;5.30;94.90
3402;DHT22;1714;49.756;8.610;2023-02-12T05:39:14;5.30;95.60
3402;DHT22;1714;49.756;8.610;2023-02-12T05:49:50;5.30;95.90
3402;DHT22;1714;49.756;8.610;2023-02-12T06:00:25;5.20;96.80
3402;DHT22;1714;49.756;8.610;2023-02-12T06:11:03;5.30;97.80
3402;DHT22;1714;49.756;8.610;2023-02-12T06:21:39;5.30;98.80
3402;DHT22;1714;49.756;8.610;2023-02-12T06:32:14;5.30;99.40
3402;DHT22;1714;49.756;8.610;2023-02-12T06:42:50;5.30;99.90
3402;DHT22;1714;49.756;8.610;2023-02-12T06:53:26;5.30;99.90
3402;DHT22;1714;49.756;8.610;2023-02-12T07:04:02;5.30;99.90
3402;DHT22;1714;49.756;8.610;2023-02-12T07:14:38;5.40;99.80
3402;DHT22;1714;49.756;8.610;2023-02-12T07:25:13;5.60;99.80
3402;DHT22;1714;49.756;8.610;2023-02-12T07:35:49;5.70;98.00
3402;DHT22;1714;49.756;8.610;2023-02-12T07:46:30;5.80;97.50
3402;DHT22;1714;49.756;8.610;2023-02-12T07:57:06;6.20;97.70
3402;DHT22;1714;49.756;8.610;2023-02-12T08:07:42;6.40;94.70
3402;DHT22;1714;49.756;8.610;2023-02-12T08:18:17;6.60;94.00
3402;DHT22;1714;49.756;8.610;2023-02-12T08:29:15;6.60;92.10
3402;DHT22;1714;49.756;8.610;2023-02-12T08:39:52;6.70;87.60
3402;DHT22;1714;49.756;8.610;2023-02-12T08:50:27;6.80;86.50
3402;DHT22;1714;49.756;8.610;2023-02-12T09:01:07;6.90;84.10
3402;DHT22;1714;49.756;8.610;2023-02-12T09:11:43;7.00;83.20
3402;DHT22;1714;49.756;8.610;2023-02-12T09:22:19;7.20;79.60
3402;DHT22;1714;49.756;8.610;2023-02-12T09:32:55;7.50;70.80
3402;DHT22;1714;49.756;8.610;2023-02-12T09:54:42;7.90;60.50
3402;DHT22;1714;49.756;8.610;2023-02-12T10:05:24;8.40;55.40
3402;DHT22;1714;49.756;8.610;2023-02-12T10:16:15;8.80;59.40
3402;DHT22;1714;49.756;8.610;2023-02-12T10:27:13;9.00;59.10
3402;DHT22;1714;49.756;8.610;2023-02-12T10:38:10;9.20;55.50
3402;DHT22;1714;49.756;8.610;2023-02-12T10:48:52;9.30;53.10
3402;DHT22;1714;49.756;8.610;2023-02-12T10:59:28;9.90;49.80
3402;DHT22;1714;49.756;8.610;2023-02-12T11:21:24;10.40;42.40
3402;DHT22;1714;49.756;8.610;2023-02-12T11:32:05;11.10;38.20
3402;DHT22;1714;49.756;8.610;2023-02-12T11:42:48;11.00;37.20
3402;DHT22;1714;49.756;8.610;2023-02-12T11:53:41;10.70;38.10
3402;DHT22;1714;49.756;8.610;2023-02-12T12:04:18;11.00;36.50
3402;DHT22;1714;49.756;8.610;2023-02-12T12:15:03;11.10;35.20
3402;DHT22;1714;49.756;8.610;2023-02-12T12:26:05;11.20;35.40
3402;DHT22;1714;49.756;8.610;2023-02-12T12:37:03;11.30;34.30
3402;DHT22;1714;49.756;8.610;2023-02-12T12:58:44;11.30;34.30
3402;DHT22;1714;49.756;8.610;2023-02-12T13:09:55;11.40;33.90
3402;DHT22;1714;49.756;8.610;2023-02-12T13:20:45;11.40;33.50
3402;DHT22;1714;49.756;8.610;2023-02-12T13:31:24;11.60;33.50
3402;DHT22;1714;49.756;8.610;2023-02-12T13:42:20;11.20;34.50
3402;DHT22;1714;49.756;8.610;2023-02-12T13:53:22;10.90;36.90
3402;DHT22;1714;49.756;8.610;2023-02-12T14:04:24;10.80;37.90
3402;DHT22;1714;49.756;8.610;2023-02-12T14:15:09;10.70;39.00
3402;DHT22;1714;49.756;8.610;2023-02-12T14:26:12;10.90;38.20
3402;DHT22;1714;49.756;8.610;2023-02-12T14:37:10;10.70;38.80
3402;DHT22;1714;49.756;8.610;2023-02-12T14:58:23;10.80;39.10
3402;DHT22;1714;49.756;8.610;2023-02-12T15:09:06;10.80;39.50
3402;DHT22;1714;49.756;8.610;2023-02-12T15:19:56;10.90;39.10
3402;DHT22;1714;49.756;8.610;2023-02-12T15:30:35;10.70;40.00
3402;DHT22;1714;49.756;8.610;2023-02-12T15:52:15;10.50;43.00
3402;DHT22;1714;49.756;8.610;2023-02-12T16:02:51;10.20;46.00
3402;DHT22;1714;49.756;8.610;2023-02-12T16:13:31;10.00;48.70
3402;DHT22;1714;49.756;8.610;2023-02-12T16:24:27;9.80;51.10
3402;DHT22;1714;49.756;8.610;2023-02-12T16:45:47;9.20;57.10
3402;DHT22;1714;49.756;8.610;2023-02-12T16:56:25;8.80;66.00
3402;DHT22;1714;49.756;8.610;2023-02-12T17:07:02;8.40;71.60
3402;DHT22;1714;49.756;8.610;2023-02-12T17:17:37;8.20;79.60
3402;DHT22;1714;49.756;8.610;2023-02-12T17:28:13;7.80;84.80
3402;DHT22;1714;49.756;8.610;2023-02-12T17:38:49;7.80;88.60
3402;DHT22;1714;49.756;8.610;2023-02-12T17:49:25;7.60;95.90
3402;DHT22;1714;49.756;8.610;2023-02-12T18:00:02;7.60;99.10
3402;DHT22;1714;49.756;8.610;2023-02-12T18:10:45;7.40;99.90
3402;DHT22;1714;49.756;8.610;2023-02-12T18:21:21;7.30;99.90
3402;DHT22;1714;49.756;8.610;2023-02-12T18:31:56;6.90;99.90
3402;DHT22;1714;49.756;8.610;2023-02-12T18:42:34;6.30;99.90
3402;DHT22;1714;49.756;8.610;2023-02-12T18:53:10;5.90;99.90
3402;DHT22;1714;49.756;8.610;2023-02-12T19:03:46;5.70;99.90
3402;DHT22;1714;49.756;8.610;2023-02-12T19:14:26;5.80;99.90
3402;DHT22;1714;49.756;8.610;2023-02-12T19:25:02;5.30;99.90
3402;DHT22;1714;49.756;8.610;2023-02-12T19:35:38;5.10;99.90
3402;DHT22;1714;49.756;8.610;2023-02-12T19:46:16;4.50;99.90
3402;DHT22;1714;49.756;8.610;2023-02-12T19:56:53;4.50;99.90
3402;DHT22;1714;49.756;8.610;2023-02-12T20:07:29;4.40;99.90
3402;DHT22;1714;49.756;8.610;2023-02-12T20:18:06;5.00;99.90
3402;DHT22;1714;49.756;8.610;2023-02-12T20:28:42;4.40;99.90
3402;DHT22;1714;49.756;8.610;2023-02-12T20:39:19;5.10;99.90
3402;DHT22;1714;49.756;8.610;2023-02-12T20:49:55;4.80;99.90
3402;DHT22;1714;49.756;8.610;2023-02-12T21:00:31;4.70;99.90
3402;DHT22;1714;49.756;8.610;2023-02-12T21:21:49;4.00;99.90
3402;DHT22;1714;49.756;8.610;2023-02-12T21:32:25;3.80;99.90
3402;DHT22;1714;49.756;8.610;2023-02-12T21:43:00;3.70;99.90
3402;DHT22;1714;49.756;8.610;2023-02-12T21:53:36;3.40;99.90
3402;DHT22;1714;49.756;8.610;2023-02-12T22:04:12;3.40;99.90
3402;DHT22;1714;49.756;8.610;2023-02-12T22:14:48;3.40;99.90
3402;DHT22;1714;49.756;8.610;2023-02-12T22:25:24;3.30;99.90
